sensor_id;sensor_type;location;lat;lon;timestamp;pressure;altitude;pressure_sealevel;temperature;humidity
68197;BME280;55019;49.382;11.358;2023-06-24T00:01:28;97512.03;;;15.30;100.00
68197;BME280;55019;49.382;11.358;2023-06-24T00:03:54;97513.50;;;15.33;100.00
68197;BME280;55019;49.382;11.358;2023-06-24T00:06:20;97515.19;;;15.48;100.00
68197;BME280;55019;49.382;11.358;2023-06-24T00:08:48;97516.47;;;15.52;100.00
68197;BME280;55019;49.382;11.358;2023-06-24T00:11:15;97515.28;;;15.24;100.00
68197;BME280;55019;49.382;11.358;2023-06-24T00:13:42;97518.59;;;15.10;100.00
68197;BME280;55019;49.382;11.358;2023-06-24T00:16:08;97513.00;;;15.21;100.00
68197;BME280;55019;49.382;11.358;2023-06-24T00:18:36;97502.50;;;15.07;100.00
68197;BME280;55019;49.382;11.358;2023-06-24T00:21:02;97507.78;;;15.29;100.00
68197;BME280;55019;49.382;11.358;2023-06-24T00:23:29;97501.31;;;15.17;100.00
68197;BME280;55019;49.382;11.358;2023-06-24T00:26:00;97505.53;;;15.18;100.00
68197;BME280;55019;49.382;11.358;2023-06-24T00:28:25;97503.31;;;14.99;100.00
68197;BME280;55019;49.382;11.358;2023-06-24T00:30:53;97500.94;;;14.90;100.00
68197;BME280;55019;49.382;11.358;2023-06-24T00:33:19;97498.75;;;15.01;100.00
68197;BME280;55019;49.382;11.358;2023-06-24T00:35:46;97501.34;;;15.09;100.00
68197;BME280;55019;49.382;11.358;2023-06-24T00:38:11;97491.94;;;15.00;100.00
68197;BME280;55019;49.382;11.358;2023-06-24T00:40:38;97496.69;;;14.89;100.00
68197;BME280;55019;49.382;11.358;2023-06-24T00:43:05;97491.03;;;14.77;100.00
68197;BME280;55019;49.382;11.358;2023-06-24T00:45:33;97481.91;;;14.81;100.00
68197;BME280;55019;49.382;11.358;2023-06-24T00:47:59;97499.31;;;14.73;100.00
68197;BME280;55019;49.382;11.358;2023-06-24T00:50:25;97491.34;;;14.82;100.00
68197;BME280;55019;49.382;11.358;2023-06-24T00:52:53;97497.03;;;14.78;100.00
68197;BME280;55019;49.382;11.358;2023-06-24T00:55:18;97496.72;;;14.81;100.00
68197;BME280;55019;49.382;11.358;2023-06-24T00:57:46;97491.47;;;14.97;100.00
68197;BME280;55019;49.382;11.358;2023-06-24T01:00:19;97489.69;;;14.89;100.00
68197;BME280;55019;49.382;11.358;2023-06-24T01:02:49;97488.25;;;14.79;100.00
68197;BME280;55019;49.382;11.358;2023-06-24T01:05:15;97482.69;;;14.98;100.00
68197;BME280;55019;49.382;11.358;2023-06-24T01:07:42;97488.38;;;14.93;100.00
68197;BME280;55019;49.382;11.358;2023-06-24T01:10:08;97491.03;;;14.77;100.00
68197;BME280;55019;49.382;11.358;2023-06-24T01:12:37;97484.22;;;14.76;100.00
68197;BME280;55019;49.382;11.358;2023-06-24T01:15:10;97481.94;;;14.73;100.00
68197;BME280;55019;49.382;11.358;2023-06-24T01:17:53;97485.56;;;14.64;100.00
68197;BME280;55019;49.382;11.358;2023-06-24T01:32:19;97474.47;;;14.70;100.00
68197;BME280;55019;49.382;11.358;2023-06-24T01:34:56;97463.00;;;14.41;100.00
68197;BME280;55019;49.382;11.358;2023-06-24T01:37:32;97455.00;;;14.58;100.00
68197;BME280;55019;49.382;11.358;2023-06-24T01:40:13;97460.88;;;14.37;100.00
68197;BME280;55019;49.382;11.358;2023-06-24T01:42:43;97454.88;;;14.36;100.00
68197;BME280;55019;49.382;11.358;2023-06-24T01:45:19;97451.81;;;14.17;100.00
68197;BME280;55019;49.382;11.358;2023-06-24T01:47:48;97458.97;;;14.15;100.00
68197;BME280;55019;49.382;11.358;2023-06-24T01:50:16;97453.44;;;14.10;100.00
68197;BME280;55019;49.382;11.358;2023-06-24T01:52:45;97442.03;;;14.03;100.00
68197;BME280;55019;49.382;11.358;2023-06-24T01:55:16;97441.75;;;14.06;100.00
68197;BME280;55019;49.382;11.358;2023-06-24T01:57:45;97448.22;;;14.02;100.00
68197;BME280;55019;49.382;11.358;2023-06-24T02:00:12;97446.25;;;13.96;100.00
68197;BME280;55019;49.382;11.358;2023-06-24T02:02:50;97455.03;;;13.95;100.00
68197;BME280;55019;49.382;11.358;2023-06-24T02:05:17;97446.59;;;13.69;100.00
68197;BME280;55019;49.382;11.358;2023-06-24T02:07:46;97447.53;;;13.52;100.00
68197;BME280;55019;49.382;11.358;2023-06-24T02:10:12;97449.47;;;13.50;100.00
68197;BME280;55019;49.382;11.358;2023-06-24T02:12:39;97444.13;;;13.59;100.00
68197;BME280;55019;49.382;11.358;2023-06-24T02:15:07;97440.72;;;13.51;100.00
68197;BME280;55019;49.382;11.358;2023-06-24T02:17:34;97441.50;;;13.27;100.00
68197;BME280;55019;49.382;11.358;2023-06-24T02:20:01;97441.19;;;13.38;100.00
68197;BME280;55019;49.382;11.358;2023-06-24T02:22:29;97441.84;;;13.40;100.00
68197;BME280;55019;49.382;11.358;2023-06-24T02:24:55;97446.72;;;13.35;100.00
68197;BME280;55019;49.382;11.358;2023-06-24T02:27:23;97444.25;;;13.34;100.00
68197;BME280;55019;49.382;11.358;2023-06-24T02:29:50;97447.94;;;13.15;100.00
68197;BME280;55019;49.382;11.358;2023-06-24T02:32:16;97446.16;;;13.16;100.00
68197;BME280;55019;49.382;11.358;2023-06-24T02:34:42;97451.03;;;13.19;100.00
68197;BME280;55019;49.382;11.358;2023-06-24T02:37:08;97436.91;;;13.21;100.00
68197;BME280;55019;49.382;11.358;2023-06-24T02:39:34;97435.16;;;13.30;100.00
68197;BME280;55019;49.382;11.358;2023-06-24T02:42:00;97420.06;;;13.17;100.00
68197;BME280;55019;49.382;11.358;2023-06-24T02:44:26;97421.53;;;13.20;100.00
68197;BME280;55019;49.382;11.358;2023-06-24T02:46:53;97423.94;;;13.13;100.00
68197;BME280;55019;49.382;11.358;2023-06-24T02:49:20;97433.53;;;13.21;100.00
68197;BME280;55019;49.382;11.358;2023-06-24T02:51:48;97443.91;;;13.21;100.00
68197;BME280;55019;49.382;11.358;2023-06-24T02:54:14;97440.25;;;12.98;100.00
68197;BME280;55019;49.382;11.358;2023-06-24T02:57:06;97455.88;;;13.06;100.00
68197;BME280;55019;49.382;11.358;2023-06-24T02:59:59;97451.78;;;13.03;100.00
68197;BME280;55019;49.382;11.358;2023-06-24T03:02:35;97445.44;;;12.98;100.00
68197;BME280;55019;49.382;11.358;2023-06-24T03:05:02;97455.75;;;12.90;100.00
68197;BME280;55019;49.382;11.358;2023-06-24T03:07:29;97450.53;;;12.82;100.00
68197;BME280;55019;49.382;11.358;2023-06-24T03:09:55;97448.94;;;12.89;100.00
68197;BME280;55019;49.382;11.358;2023-06-24T03:12:22;97468.19;;;13.04;100.00
68197;BME280;55019;49.382;11.358;2023-06-24T03:14:48;97464.25;;;13.00;100.00
68197;BME280;55019;49.382;11.358;2023-06-24T03:17:15;97465.22;;;12.99;100.00
68197;BME280;55019;49.382;11.358;2023-06-24T03:19:43;97475.69;;;13.15;100.00
68197;BME280;55019;49.382;11.358;2023-06-24T03:22:08;97470.13;;;13.02;100.00
68197;BME280;55019;49.382;11.358;2023-06-24T03:24:34;97476.75;;;12.97;100.00
68197;BME280;55019;49.382;11.358;2023-06-24T03:27:00;97474.88;;;12.89;100.00
68197;BME280;55019;49.382;11.358;2023-06-24T03:29:34;97476.75;;;12.97;100.00
68197;BME280;55019;49.382;11.358;2023-06-24T03:32:08;97482.41;;;13.00;100.00
68197;BME280;55019;49.382;11.358;2023-06-24T03:34:34;97487.34;;;13.11;100.00
68197;BME280;55019;49.382;11.358;2023-06-24T03:37:00;97499.19;;;13.13;100.00
68197;BME280;55019;49.382;11.358;2023-06-24T03:39:27;97498.19;;;13.06;100.00
68197;BME280;55019;49.382;11.358;2023-06-24T03:41:54;97501.09;;;13.03;100.00
68197;BME280;55019;49.382;11.358;2023-06-24T03:44:21;97506.25;;;12.96;100.00
68197;BME280;55019;49.382;11.358;2023-06-24T03:46:46;97509.53;;;13.05;100.00
68197;BME280;55019;49.382;11.358;2023-06-24T03:49:12;97509.41;;;13.15;100.00
68197;BME280;55019;49.382;11.358;2023-06-24T03:51:38;97509.38;;;13.07;100.00
68197;BME280;55019;49.382;11.358;2023-06-24T03:54:04;97520.06;;;13.04;100.00
68197;BME280;55019;49.382;11.358;2023-06-24T03:56:29;97517.22;;;12.90;100.00
68197;BME280;55019;49.382;11.358;2023-06-24T03:58:55;97515.41;;;12.90;100.00
68197;BME280;55019;49.382;11.358;2023-06-24T04:01:22;97515.84;;;12.78;100.00
68197;BME280;55019;49.382;11.358;2023-06-24T04:03:48;97510.81;;;13.01;100.00
68197;BME280;55019;49.382;11.358;2023-06-24T04:06:14;97516.25;;;12.91;100.00
68197;BME280;55019;49.382;11.358;2023-06-24T04:08:40;97523.66;;;13.11;100.00
68197;BME280;55019;49.382;11.358;2023-06-24T04:11:06;97523.06;;;13.25;100.00
68197;BME280;55019;49.382;11.358;2023-06-24T04:13:32;97521.47;;;13.32;100.00
68197;BME280;55019;49.382;11.358;2023-06-24T04:15:58;97526.22;;;13.36;100.00
68197;BME280;55019;49.382;11.358;2023-06-24T04:18:24;97535.06;;;13.26;100.00
68197;BME280;55019;49.382;11.358;2023-06-24T04:20:50;97539.69;;;13.48;100.00
68197;BME280;55019;49.382;11.358;2023-06-24T04:23:18;97535.78;;;13.44;100.00
68197;BME280;55019;49.382;11.358;2023-06-24T04:25:45;97539.84;;;13.38;100.00
68197;BME280;55019;49.382;11.358;2023-06-24T04:28:11;97549.16;;;13.57;100.00
68197;BME280;55019;49.382;11.358;2023-06-24T04:30:37;97548.44;;;13.47;100.00
68197;BME280;55019;49.382;11.358;2023-06-24T04:33:07;97548.63;;;13.53;100.00
68197;BME280;55019;49.382;11.358;2023-06-24T04:35:32;97543.00;;;13.66;100.00
68197;BME280;55019;49.382;11.358;2023-06-24T04:37:58;97547.22;;;13.59;100.00
68197;BME280;55019;49.382;11.358;2023-06-24T04:40:24;97549.50;;;13.70;100.00
68197;BME280;55019;49.382;11.358;2023-06-24T04:42:50;97545.63;;;13.90;100.00
68197;BME280;55019;49.382;11.358;2023-06-24T04:45:16;97548.88;;;14.00;100.00
68197;BME280;55019;49.382;11.358;2023-06-24T04:47:41;97554.59;;;14.11;100.00
68197;BME280;55019;49.382;11.358;2023-06-24T04:50:07;97560.25;;;13.83;100.00
68197;BME280;55019;49.382;11.358;2023-06-24T04:52:36;97554.25;;;13.82;100.00
68197;BME280;55019;49.382;11.358;2023-06-24T04:55:02;97560.91;;;14.01;100.00
68197;BME280;55019;49.382;11.358;2023-06-24T04:57:30;97558.38;;;14.17;100.00
68197;BME280;55019;49.382;11.358;2023-06-24T04:59:57;97564.06;;;14.28;100.00
68197;BME280;55019;49.382;11.358;2023-06-24T05:02:22;97564.41;;;14.33;100.00
68197;BME280;55019;49.382;11.358;2023-06-24T05:04:49;97553.81;;;14.50;100.00
68197;BME280;55019;49.382;11.358;2023-06-24T05:07:14;97560.19;;;14.40;100.00
68197;BME280;55019;49.382;11.358;2023-06-24T05:09:40;97561.63;;;14.58;100.00
68197;BME280;55019;49.382;11.358;2023-06-24T05:12:07;97561.28;;;14.53;100.00
68197;BME280;55019;49.382;11.358;2023-06-24T05:14:36;97567.00;;;14.41;100.00
68197;BME280;55019;49.382;11.358;2023-06-24T05:17:03;97565.19;;;14.49;100.00
68197;BME280;55019;49.382;11.358;2023-06-24T05:19:28;97562.63;;;14.57;100.00
68197;BME280;55019;49.382;11.358;2023-06-24T05:21:54;97563.91;;;14.61;100.00
68197;BME280;55019;49.382;11.358;2023-06-24T05:24:20;97567.94;;;14.64;100.00
68197;BME280;55019;49.382;11.358;2023-06-24T05:26:49;97571.69;;;14.53;100.00
68197;BME280;55019;49.382;11.358;2023-06-24T05:29:15;97570.53;;;14.72;100.00
68197;BME280;55019;49.382;11.358;2023-06-24T05:31:41;97573.66;;;14.67;100.00
68197;BME280;55019;49.382;11.358;2023-06-24T05:34:07;97566.00;;;14.74;100.00
68197;BME280;55019;49.382;11.358;2023-06-24T05:36:33;97562.94;;;14.62;100.00
68197;BME280;55019;49.382;11.358;2023-06-24T05:38:59;97570.72;;;14.78;100.00
68197;BME280;55019;49.382;11.358;2023-06-24T05:41:25;97562.41;;;14.67;100.00
68197;BME280;55019;49.382;11.358;2023-06-24T05:44:02;97560.34;;;14.62;100.00
68197;BME280;55019;49.382;11.358;2023-06-24T05:46:28;97560.78;;;14.66;100.00
68197;BME280;55019;49.382;11.358;2023-06-24T05:48:53;97568.22;;;15.01;100.00
68197;BME280;55019;49.382;11.358;2023-06-24T05:51:19;97569.50;;;15.13;100.00
68197;BME280;55019;49.382;11.358;2023-06-24T05:53:45;97570.66;;;15.10;100.00
68197;BME280;55019;49.382;11.358;2023-06-24T05:56:10;97573.03;;;15.20;100.00
68197;BME280;55019;49.382;11.358;2023-06-24T05:58:36;97579.69;;;15.38;100.00
68197;BME280;55019;49.382;11.358;2023-06-24T06:01:02;97579.00;;;15.44;100.00
68197;BME280;55019;49.382;11.358;2023-06-24T06:03:27;97586.81;;;15.44;100.00
68197;BME280;55019;49.382;11.358;2023-06-24T06:05:53;97585.16;;;15.51;100.00
68197;BME280;55019;49.382;11.358;2023-06-24T06:08:18;97589.63;;;15.73;100.00
68197;BME280;55019;49.382;11.358;2023-06-24T06:10:44;97583.75;;;15.79;100.00
68197;BME280;55019;49.382;11.358;2023-06-24T06:13:10;97577.25;;;15.75;100.00
68197;BME280;55019;49.382;11.358;2023-06-24T06:15:35;97571.69;;;15.78;100.00
68197;BME280;55019;49.382;11.358;2023-06-24T06:18:01;97577.50;;;15.88;100.00
68197;BME280;55019;49.382;11.358;2023-06-24T06:20:26;97568.94;;;16.02;100.00
68197;BME280;55019;49.382;11.358;2023-06-24T06:22:52;97579.41;;;16.47;100.00
68197;BME280;55019;49.382;11.358;2023-06-24T06:25:18;97571.63;;;16.61;100.00
68197;BME280;55019;49.382;11.358;2023-06-24T06:27:43;97582.84;;;16.84;95.36
68197;BME280;55019;49.382;11.358;2023-06-24T06:30:10;97572.13;;;16.94;94.38
68197;BME280;55019;49.382;11.358;2023-06-24T06:32:35;97574.03;;;17.00;95.89
68197;BME280;55019;49.382;11.358;2023-06-24T06:35:01;97575.13;;;17.05;94.69
68197;BME280;55019;49.382;11.358;2023-06-24T06:37:27;97577.03;;;17.26;94.12
68197;BME280;55019;49.382;11.358;2023-06-24T06:39:53;97582.28;;;17.40;92.74
68197;BME280;55019;49.382;11.358;2023-06-24T06:42:18;97581.56;;;17.60;90.34
68197;BME280;55019;49.382;11.358;2023-06-24T06:44:44;97585.31;;;17.72;87.85
68197;BME280;55019;49.382;11.358;2023-06-24T06:47:10;97583.44;;;17.66;92.09
68197;BME280;55019;49.382;11.358;2023-06-24T06:49:36;97584.22;;;17.81;88.32
68197;BME280;55019;49.382;11.358;2023-06-24T06:52:02;97573.66;;;17.75;90.89
68197;BME280;55019;49.382;11.358;2023-06-24T06:54:27;97582.00;;;17.99;89.94
68197;BME280;55019;49.382;11.358;2023-06-24T06:56:53;97574.72;;;18.16;88.20
68197;BME280;55019;49.382;11.358;2023-06-24T06:59:19;97568.63;;;18.09;84.91
68197;BME280;55019;49.382;11.358;2023-06-24T07:01:44;97578.75;;;17.97;86.85
68197;BME280;55019;49.382;11.358;2023-06-24T07:04:10;97570.31;;;18.16;85.07
68197;BME280;55019;49.382;11.358;2023-06-24T07:06:36;97573.88;;;18.30;83.17
68197;BME280;55019;49.382;11.358;2023-06-24T07:09:01;97567.31;;;18.61;82.22
68197;BME280;55019;49.382;11.358;2023-06-24T07:11:27;97558.84;;;18.59;82.94
68197;BME280;55019;49.382;11.358;2023-06-24T07:13:52;97561.00;;;18.77;82.91
68197;BME280;55019;49.382;11.358;2023-06-24T07:16:18;97553.06;;;18.91;79.22
68197;BME280;55019;49.382;11.358;2023-06-24T07:18:44;97546.59;;;18.87;79.34
68197;BME280;55019;49.382;11.358;2023-06-24T07:21:09;97549.28;;;19.21;81.94
68197;BME280;55019;49.382;11.358;2023-06-24T07:23:35;97557.66;;;19.44;80.04
68197;BME280;55019;49.382;11.358;2023-06-24T07:26:01;97553.97;;;19.32;75.30
68197;BME280;55019;49.382;11.358;2023-06-24T07:28:26;97549.13;;;19.08;77.84
68197;BME280;55019;49.382;11.358;2023-06-24T07:30:52;97554.34;;;19.29;77.75
68197;BME280;55019;49.382;11.358;2023-06-24T07:33:18;97546.41;;;19.56;77.25
68197;BME280;55019;49.382;11.358;2023-06-24T07:35:43;97546.06;;;19.66;74.00
68197;BME280;55019;49.382;11.358;2023-06-24T07:38:09;97544.66;;;19.76;72.14
68197;BME280;55019;49.382;11.358;2023-06-24T07:40:34;97547.97;;;19.91;73.83
68197;BME280;55019;49.382;11.358;2023-06-24T07:43:00;97542.03;;;20.42;71.58
68197;BME280;55019;49.382;11.358;2023-06-24T07:45:26;97541.00;;;20.56;69.17
68197;BME280;55019;49.382;11.358;2023-06-24T07:47:51;97548.09;;;21.01;66.54
68197;BME280;55019;49.382;11.358;2023-06-24T07:50:17;97551.72;;;21.00;65.31
68197;BME280;55019;49.382;11.358;2023-06-24T07:52:43;97542.03;;;20.94;63.42
68197;BME280;55019;49.382;11.358;2023-06-24T07:55:08;97540.31;;;21.45;65.22
68197;BME280;55019;49.382;11.358;2023-06-24T07:57:34;97539.44;;;21.64;64.16
68197;BME280;55019;49.382;11.358;2023-06-24T08:00:00;97544.69;;;22.08;63.47
68197;BME280;55019;49.382;11.358;2023-06-24T08:02:25;97543.31;;;22.36;61.55
68197;BME280;55019;49.382;11.358;2023-06-24T08:04:51;97542.41;;;22.18;61.94
68197;BME280;55019;49.382;11.358;2023-06-24T08:07:17;97546.13;;;22.10;60.73
68197;BME280;55019;49.382;11.358;2023-06-24T08:09:43;97551.38;;;21.73;60.69
68197;BME280;55019;49.382;11.358;2023-06-24T08:12:09;97544.34;;;21.48;63.35
68197;BME280;55019;49.382;11.358;2023-06-24T08:14:35;97549.75;;;22.09;61.36
68197;BME280;55019;49.382;11.358;2023-06-24T08:17:01;97551.94;;;22.50;59.92
68197;BME280;55019;49.382;11.358;2023-06-24T08:19:27;97540.03;;;22.72;58.21
68197;BME280;55019;49.382;11.358;2023-06-24T08:21:52;97542.47;;;22.67;58.86
68197;BME280;55019;49.382;11.358;2023-06-24T08:24:19;97549.59;;;22.66;58.90
68197;BME280;55019;49.382;11.358;2023-06-24T08:26:44;97559.31;;;22.35;58.64
68197;BME280;55019;49.382;11.358;2023-06-24T08:29:10;97561.75;;;21.99;58.57
68197;BME280;55019;49.382;11.358;2023-06-24T08:31:35;97559.88;;;22.12;61.68
68197;BME280;55019;49.382;11.358;2023-06-24T08:34:01;97552.88;;;22.86;59.90
68197;BME280;55019;49.382;11.358;2023-06-24T08:36:32;97551.88;;;23.48;56.83
68197;BME280;55019;49.382;11.358;2023-06-24T08:38:58;97555.56;;;23.82;54.97
68197;BME280;55019;49.382;11.358;2023-06-24T08:41:24;97549.59;;;23.69;53.88
68197;BME280;55019;49.382;11.358;2023-06-24T08:43:52;97553.69;;;24.01;52.46
68197;BME280;55019;49.382;11.358;2023-06-24T08:46:19;97547.50;;;23.42;52.39
68197;BME280;55019;49.382;11.358;2023-06-24T08:48:45;97551.22;;;23.52;51.75
68197;BME280;55019;49.382;11.358;2023-06-24T08:51:15;97552.44;;;24.03;49.35
68197;BME280;55019;49.382;11.358;2023-06-24T08:53:44;97543.28;;;24.17;49.95
68197;BME280;55019;49.382;11.358;2023-06-24T08:56:10;97548.84;;;24.68;49.46
68197;BME280;55019;49.382;11.358;2023-06-24T08:58:36;97546.09;;;24.98;46.39
68197;BME280;55019;49.382;11.358;2023-06-24T09:01:03;97544.41;;;25.03;46.97
68197;BME280;55019;49.382;11.358;2023-06-24T09:03:28;97543.03;;;25.35;46.16
68197;BME280;55019;49.382;11.358;2023-06-24T09:05:54;97539.28;;;26.10;45.57
68197;BME280;55019;49.382;11.358;2023-06-24T09:08:21;97548.78;;;25.94;44.61
68197;BME280;55019;49.382;11.358;2023-06-24T09:10:53;97545.84;;;26.63;44.04
68197;BME280;55019;49.382;11.358;2023-06-24T09:13:20;97535.31;;;26.84;43.38
68197;BME280;55019;49.382;11.358;2023-06-24T09:15:45;97536.25;;;27.11;42.31
68197;BME280;55019;49.382;11.358;2023-06-24T09:18:11;97544.25;;;27.33;43.04
68197;BME280;55019;49.382;11.358;2023-06-24T09:20:41;97543.00;;;27.78;42.54
68197;BME280;55019;49.382;11.358;2023-06-24T09:23:10;97533.28;;;27.67;40.60
68197;BME280;55019;49.382;11.358;2023-06-24T09:25:36;97533.03;;;26.76;41.47
68197;BME280;55019;49.382;11.358;2023-06-24T09:28:02;97534.41;;;25.90;41.00
68197;BME280;55019;49.382;11.358;2023-06-24T09:30:28;97539.47;;;25.92;44.24
68197;BME280;55019;49.382;11.358;2023-06-24T09:32:54;97540.16;;;25.87;41.11
68197;BME280;55019;49.382;11.358;2023-06-24T09:35:25;97530.19;;;26.06;41.92
68197;BME280;55019;49.382;11.358;2023-06-24T09:37:52;97528.44;;;25.72;42.10
68197;BME280;55019;49.382;11.358;2023-06-24T09:40:19;97528.50;;;25.49;42.48
68197;BME280;55019;49.382;11.358;2023-06-24T09:43:03;97529.25;;;25.84;43.04
68197;BME280;55019;49.382;11.358;2023-06-24T09:45:29;97525.59;;;26.57;43.85
68197;BME280;55019;49.382;11.358;2023-06-24T09:47:56;97530.50;;;26.81;38.77
68197;BME280;55019;49.382;11.358;2023-06-24T09:50:23;97523.25;;;26.93;40.26
68197;BME280;55019;49.382;11.358;2023-06-24T09:52:50;97520.44;;;26.06;39.50
68197;BME280;55019;49.382;11.358;2023-06-24T09:55:17;97523.81;;;25.39;42.17
68197;BME280;55019;49.382;11.358;2023-06-24T09:57:50;97520.28;;;25.34;42.21
68197;BME280;55019;49.382;11.358;2023-06-24T10:00:18;97511.88;;;25.02;38.87
68197;BME280;55019;49.382;11.358;2023-06-24T10:02:45;97517.63;;;25.85;43.44
68197;BME280;55019;49.382;11.358;2023-06-24T10:05:14;97497.78;;;26.76;38.68
68197;BME280;55019;49.382;11.358;2023-06-24T10:07:40;97505.97;;;27.88;39.34
68197;BME280;55019;49.382;11.358;2023-06-24T10:10:07;97504.84;;;28.63;36.15
68197;BME280;55019;49.382;11.358;2023-06-24T10:12:38;97494.28;;;28.73;35.45
68197;BME280;55019;49.382;11.358;2023-06-24T10:15:05;97487.94;;;29.16;32.71
68197;BME280;55019;49.382;11.358;2023-06-24T10:17:32;97487.66;;;28.81;32.53
68197;BME280;55019;49.382;11.358;2023-06-24T10:19:58;97483.41;;;27.48;37.81
68197;BME280;55019;49.382;11.358;2023-06-24T10:22:24;97489.13;;;27.02;36.72
68197;BME280;55019;49.382;11.358;2023-06-24T10:24:51;97497.44;;;26.72;37.61
68197;BME280;55019;49.382;11.358;2023-06-24T10:27:19;97487.59;;;27.22;37.21
68197;BME280;55019;49.382;11.358;2023-06-24T10:29:51;97482.91;;;28.20;36.96
68197;BME280;55019;49.382;11.358;2023-06-24T10:32:18;97486.19;;;28.90;36.49
68197;BME280;55019;49.382;11.358;2023-06-24T10:34:44;97474.16;;;29.29;33.06
68197;BME280;55019;49.382;11.358;2023-06-24T10:37:18;97473.00;;;29.10;32.12
68197;BME280;55019;49.382;11.358;2023-06-24T10:39:48;97464.84;;;28.85;34.41
68197;BME280;55019;49.382;11.358;2023-06-24T10:42:38;97470.31;;;29.05;35.27
68197;BME280;55019;49.382;11.358;2023-06-24T10:47:41;97464.34;;;30.05;32.37
68197;BME280;55019;49.382;11.358;2023-06-24T10:50:09;97464.63;;;29.38;31.86
68197;BME280;55019;49.382;11.358;2023-06-24T10:52:39;97459.91;;;28.67;34.69
68197;BME280;55019;49.382;11.358;2023-06-24T10:55:05;97460.81;;;28.14;34.49
68197;BME280;55019;49.382;11.358;2023-06-24T10:57:32;97449.59;;;29.17;35.14
68197;BME280;55019;49.382;11.358;2023-06-24T10:59:58;97453.06;;;29.83;32.19
68197;BME280;55019;49.382;11.358;2023-06-24T11:02:25;97443.97;;;29.65;30.99
68197;BME280;55019;49.382;11.358;2023-06-24T11:04:59;97441.84;;;28.69;32.74
68197;BME280;55019;49.382;11.358;2023-06-24T11:07:26;97438.69;;;28.09;32.68
68197;BME280;55019;49.382;11.358;2023-06-24T11:10:00;97432.03;;;28.69;33.67
68197;BME280;55019;49.382;11.358;2023-06-24T11:12:31;97431.63;;;29.44;35.40
68197;BME280;55019;49.382;11.358;2023-06-24T11:14:58;97431.53;;;30.00;33.30
68197;BME280;55019;49.382;11.358;2023-06-24T11:17:25;97438.13;;;29.72;31.05
68197;BME280;55019;49.382;11.358;2023-06-24T11:19:52;97432.16;;;29.41;33.59
68197;BME280;55019;49.382;11.358;2023-06-24T11:22:18;97427.22;;;29.74;34.71
68197;BME280;55019;49.382;11.358;2023-06-24T11:24:44;97434.41;;;29.73;34.11
68197;BME280;55019;49.382;11.358;2023-06-24T11:27:09;97436.50;;;29.57;32.00
68197;BME280;55019;49.382;11.358;2023-06-24T11:29:35;97425.13;;;29.15;29.71
68197;BME280;55019;49.382;11.358;2023-06-24T11:32:02;97421.91;;;29.79;29.88
68197;BME280;55019;49.382;11.358;2023-06-24T11:34:29;97418.75;;;30.07;31.32
68197;BME280;55019;49.382;11.358;2023-06-24T11:36:54;97417.44;;;30.64;31.88
68197;BME280;55019;49.382;11.358;2023-06-24T11:39:25;97423.00;;;30.93;30.81
68197;BME280;55019;49.382;11.358;2023-06-24T11:41:51;97410.25;;;30.25;31.52
68197;BME280;55019;49.382;11.358;2023-06-24T11:44:18;97409.97;;;30.26;30.81
68197;BME280;55019;49.382;11.358;2023-06-24T11:46:44;97410.41;;;29.59;33.21
68197;BME280;55019;49.382;11.358;2023-06-24T11:49:10;97407.03;;;29.22;32.65
68197;BME280;55019;49.382;11.358;2023-06-24T11:51:36;97400.03;;;29.01;32.69
68197;BME280;55019;49.382;11.358;2023-06-24T11:54:04;97398.19;;;29.72;33.40
68197;BME280;55019;49.382;11.358;2023-06-24T11:56:41;97398.16;;;29.58;32.71
68197;BME280;55019;49.382;11.358;2023-06-24T11:59:15;97405.72;;;29.19;32.94
68197;BME280;55019;49.382;11.358;2023-06-24T12:01:45;97397.59;;;29.46;32.75
68197;BME280;55019;49.382;11.358;2023-06-24T12:04:14;97391.78;;;28.56;33.97
68197;BME280;55019;49.382;11.358;2023-06-24T12:06:40;97397.78;;;28.83;34.94
68197;BME280;55019;49.382;11.358;2023-06-24T12:09:07;97400.06;;;29.06;34.00
68197;BME280;55019;49.382;11.358;2023-06-24T12:11:32;97400.94;;;28.75;32.34
68197;BME280;55019;49.382;11.358;2023-06-24T12:13:58;97382.50;;;28.27;33.99
68197;BME280;55019;49.382;11.358;2023-06-24T12:16:24;97393.16;;;27.48;35.39
68197;BME280;55019;49.382;11.358;2023-06-24T12:18:52;97390.69;;;27.63;35.32
68197;BME280;55019;49.382;11.358;2023-06-24T12:21:18;97395.06;;;28.31;33.28
68197;BME280;55019;49.382;11.358;2023-06-24T12:23:44;97391.72;;;27.83;31.75
68197;BME280;55019;49.382;11.358;2023-06-24T12:26:10;97395.38;;;28.76;32.45
68197;BME280;55019;49.382;11.358;2023-06-24T12:28:36;97381.03;;;28.36;33.59
68197;BME280;55019;49.382;11.358;2023-06-24T12:31:02;97388.72;;;28.06;32.81
68197;BME280;55019;49.382;11.358;2023-06-24T12:33:28;97382.00;;;27.99;33.76
68197;BME280;55019;49.382;11.358;2023-06-24T12:35:54;97374.19;;;28.50;32.66
68197;BME280;55019;49.382;11.358;2023-06-24T12:38:19;97381.66;;;28.94;33.20
68197;BME280;55019;49.382;11.358;2023-06-24T12:40:45;97374.56;;;29.15;31.56
68197;BME280;55019;49.382;11.358;2023-06-24T12:43:11;97378.97;;;29.51;32.04
68197;BME280;55019;49.382;11.358;2023-06-24T12:45:38;97374.25;;;29.87;32.06
68197;BME280;55019;49.382;11.358;2023-06-24T12:48:04;97367.34;;;30.06;31.02
68197;BME280;55019;49.382;11.358;2023-06-24T12:50:29;97371.00;;;29.75;32.12
68197;BME280;55019;49.382;11.358;2023-06-24T12:52:58;97362.25;;;30.10;31.60
68197;BME280;55019;49.382;11.358;2023-06-24T12:55:24;97360.88;;;29.53;31.77
68197;BME280;55019;49.382;11.358;2023-06-24T12:57:49;97358.25;;;28.50;34.17
68197;BME280;55019;49.382;11.358;2023-06-24T13:00:16;97366.97;;;28.45;33.51